sensor_id;sensor_type;location;lat;lon;timestamp;P1;durP1;ratioP1;P2;durP2;ratioP2
81211;SDS011;70686;52.494;13.420;2023-10-09T00:00:33;5.15;;;3.13;;
81211;SDS011;70686;52.494;13.420;2023-10-09T00:03:05;6.22;;;2.95;;
81211;SDS011;70686;52.494;13.420;2023-10-09T00:05:32;5.35;;;4.13;;
81211;SDS011;70686;52.494;13.420;2023-10-09T00:08:10;6.38;;;3.47;;
81211;SDS011;70686;52.494;13.420;2023-10-09T00:11:03;5.45;;;3.50;;
81211;SDS011;70686;52.494;13.420;2023-10-09T00:13:45;5.60;;;3.80;;
81211;SDS011;70686;52.494;13.420;2023-10-09T00:16:22;7.65;;;3.60;;
81211;SDS011;70686;52.494;13.420;2023-10-09T00:19:00;5.65;;;3.70;;
81211;SDS011;70686;52.494;13.420;2023-10-09T00:21:39;5.65;;;3.50;;
81211;SDS011;70686;52.494;13.420;2023-10-09T00:24:09;6.50;;;3.95;;
81211;SDS011;70686;52.494;13.420;2023-10-09T00:26:45;5.50;;;3.10;;
81211;SDS011;70686;52.494;13.420;2023-10-09T00:29:14;6.00;;;3.63;;
81211;SDS011;70686;52.494;13.420;2023-10-09T00:31:53;7.22;;;3.53;;
81211;SDS011;70686;52.494;13.420;2023-10-09T00:34:38;7.55;;;3.88;;
81211;SDS011;70686;52.494;13.420;2023-10-09T00:37:07;5.78;;;3.38;;
81211;SDS011;70686;52.494;13.420;2023-10-09T00:39:42;6.80;;;3.40;;
81211;SDS011;70686;52.494;13.420;2023-10-09T00:42:11;6.90;;;3.63;;
81211;SDS011;70686;52.494;13.420;2023-10-09T00:44:39;5.82;;;3.40;;
81211;SDS011;70686;52.494;13.420;2023-10-09T00:47:15;6.00;;;3.70;;
81211;SDS011;70686;52.494;13.420;2023-10-09T00:49:52;6.47;;;3.80;;
81211;SDS011;70686;52.494;13.420;2023-10-09T00:52:28;5.78;;;3.50;;
81211;SDS011;70686;52.494;13.420;2023-10-09T00:55:25;5.75;;;3.80;;
81211;SDS011;70686;52.494;13.420;2023-10-09T00:58:03;7.07;;;3.80;;
81211;SDS011;70686;52.494;13.420;2023-10-09T01:00:53;7.00;;;3.42;;
81211;SDS011;70686;52.494;13.420;2023-10-09T01:03:19;8.48;;;3.72;;
81211;SDS011;70686;52.494;13.420;2023-10-09T01:08:23;6.05;;;3.35;;
81211;SDS011;70686;52.494;13.420;2023-10-09T01:10:53;4.97;;;3.40;;
81211;SDS011;70686;52.494;13.420;2023-10-09T01:13:25;5.97;;;3.60;;
81211;SDS011;70686;52.494;13.420;2023-10-09T01:16:05;6.47;;;3.83;;
81211;SDS011;70686;52.494;13.420;2023-10-09T01:18:31;5.95;;;3.60;;
81211;SDS011;70686;52.494;13.420;2023-10-09T01:21:01;6.38;;;3.78;;
81211;SDS011;70686;52.494;13.420;2023-10-09T01:23:28;7.47;;;3.75;;
81211;SDS011;70686;52.494;13.420;2023-10-09T01:25:56;5.63;;;3.83;;
81211;SDS011;70686;52.494;13.420;2023-10-09T01:28:22;7.45;;;3.60;;
81211;SDS011;70686;52.494;13.420;2023-10-09T01:30:49;7.22;;;3.75;;
81211;SDS011;70686;52.494;13.420;2023-10-09T01:33:16;5.53;;;4.30;;
81211;SDS011;70686;52.494;13.420;2023-10-09T01:35:52;6.03;;;3.85;;
81211;SDS011;70686;52.494;13.420;2023-10-09T01:38:25;5.57;;;3.60;;
81211;SDS011;70686;52.494;13.420;2023-10-09T01:41:06;5.38;;;3.60;;
81211;SDS011;70686;52.494;13.420;2023-10-09T01:43:40;5.22;;;3.60;;
81211;SDS011;70686;52.494;13.420;2023-10-09T01:46:12;7.75;;;4.13;;
81211;SDS011;70686;52.494;13.420;2023-10-09T01:48:41;4.97;;;3.53;;
81211;SDS011;70686;52.494;13.420;2023-10-09T01:51:14;5.68;;;3.60;;
81211;SDS011;70686;52.494;13.420;2023-10-09T01:53:44;7.07;;;3.42;;
81211;SDS011;70686;52.494;13.420;2023-10-09T01:56:12;5.63;;;3.38;;
81211;SDS011;70686;52.494;13.420;2023-10-09T01:58:41;4.30;;;3.00;;
81211;SDS011;70686;52.494;13.420;2023-10-09T02:01:11;5.57;;;3.53;;
81211;SDS011;70686;52.494;13.420;2023-10-09T02:03:37;5.32;;;3.20;;
81211;SDS011;70686;52.494;13.420;2023-10-09T02:06:06;4.95;;;3.10;;
81211;SDS011;70686;52.494;13.420;2023-10-09T02:08:54;5.15;;;3.08;;
81211;SDS011;70686;52.494;13.420;2023-10-09T02:11:21;6.78;;;3.35;;
81211;SDS011;70686;52.494;13.420;2023-10-09T02:14:01;5.40;;;3.28;;
81211;SDS011;70686;52.494;13.420;2023-10-09T02:16:48;6.55;;;3.75;;
81211;SDS011;70686;52.494;13.420;2023-10-09T02:19:34;8.48;;;3.65;;
81211;SDS011;70686;52.494;13.420;2023-10-09T02:22:03;5.43;;;3.67;;
81211;SDS011;70686;52.494;13.420;2023-10-09T02:24:39;5.97;;;3.78;;
81211;SDS011;70686;52.494;13.420;2023-10-09T02:27:18;7.13;;;3.80;;
81211;SDS011;70686;52.494;13.420;2023-10-09T02:30:03;7.07;;;3.75;;
81211;SDS011;70686;52.494;13.420;2023-10-09T02:32:40;6.95;;;4.13;;
81211;SDS011;70686;52.494;13.420;2023-10-09T02:35:07;4.97;;;3.40;;
81211;SDS011;70686;52.494;13.420;2023-10-09T02:37:57;5.35;;;3.65;;
81211;SDS011;70686;52.494;13.420;2023-10-09T02:40:26;5.70;;;3.40;;
81211;SDS011;70686;52.494;13.420;2023-10-09T02:42:58;6.43;;;3.40;;
81211;SDS011;70686;52.494;13.420;2023-10-09T02:45:24;5.35;;;3.50;;
81211;SDS011;70686;52.494;13.420;2023-10-09T02:47:54;6.00;;;3.55;;
81211;SDS011;70686;52.494;13.420;2023-10-09T02:50:20;6.88;;;3.70;;
81211;SDS011;70686;52.494;13.420;2023-10-09T02:52:48;5.63;;;3.60;;
81211;SDS011;70686;52.494;13.420;2023-10-09T02:55:18;9.98;;;4.10;;
81211;SDS011;70686;52.494;13.420;2023-10-09T02:57:53;7.00;;;3.58;;
81211;SDS011;70686;52.494;13.420;2023-10-09T03:00:36;6.23;;;3.30;;
81211;SDS011;70686;52.494;13.420;2023-10-09T03:03:05;5.72;;;3.50;;
81211;SDS011;70686;52.494;13.420;2023-10-09T03:05:33;5.95;;;3.80;;
81211;SDS011;70686;52.494;13.420;2023-10-09T03:07:59;7.35;;;3.92;;
81211;SDS011;70686;52.494;13.420;2023-10-09T03:10:27;8.68;;;4.07;;
81211;SDS011;70686;52.494;13.420;2023-10-09T03:12:52;7.10;;;3.75;;
81211;SDS011;70686;52.494;13.420;2023-10-09T03:15:19;5.53;;;3.58;;
81211;SDS011;70686;52.494;13.420;2023-10-09T03:17:45;5.13;;;3.55;;
81211;SDS011;70686;52.494;13.420;2023-10-09T03:20:13;7.25;;;3.40;;
81211;SDS011;70686;52.494;13.420;2023-10-09T03:22:40;6.50;;;3.35;;
81211;SDS011;70686;52.494;13.420;2023-10-09T03:25:07;6.95;;;3.40;;
81211;SDS011;70686;52.494;13.420;2023-10-09T03:27:40;6.07;;;3.50;;
81211;SDS011;70686;52.494;13.420;2023-10-09T03:30:13;6.88;;;3.50;;
81211;SDS011;70686;52.494;13.420;2023-10-09T03:32:45;6.95;;;3.83;;
81211;SDS011;70686;52.494;13.420;2023-10-09T03:35:15;6.35;;;3.35;;
81211;SDS011;70686;52.494;13.420;2023-10-09T03:37:49;5.93;;;3.70;;
81211;SDS011;70686;52.494;13.420;2023-10-09T03:40:36;6.60;;;3.35;;
81211;SDS011;70686;52.494;13.420;2023-10-09T03:43:04;5.13;;;3.35;;
81211;SDS011;70686;52.494;13.420;2023-10-09T03:45:30;7.53;;;3.60;;
81211;SDS011;70686;52.494;13.420;2023-10-09T03:48:00;5.60;;;3.63;;
81211;SDS011;70686;52.494;13.420;2023-10-09T03:50:46;6.00;;;3.78;;
81211;SDS011;70686;52.494;13.420;2023-10-09T03:53:12;5.95;;;3.70;;
81211;SDS011;70686;52.494;13.420;2023-10-09T03:55:39;6.25;;;3.83;;
81211;SDS011;70686;52.494;13.420;2023-10-09T03:58:06;6.82;;;3.92;;
81211;SDS011;70686;52.494;13.420;2023-10-09T04:00:32;6.32;;;3.38;;
81211;SDS011;70686;52.494;13.420;2023-10-09T04:03:06;6.75;;;4.28;;
81211;SDS011;70686;52.494;13.420;2023-10-09T04:05:31;6.13;;;3.78;;
81211;SDS011;70686;52.494;13.420;2023-10-09T04:07:57;6.72;;;4.00;;
81211;SDS011;70686;52.494;13.420;2023-10-09T04:10:27;5.55;;;3.50;;
81211;SDS011;70686;52.494;13.420;2023-10-09T04:13:08;6.75;;;3.50;;
81211;SDS011;70686;52.494;13.420;2023-10-09T04:15:42;4.45;;;3.20;;
81211;SDS011;70686;52.494;13.420;2023-10-09T04:18:08;6.30;;;3.78;;
81211;SDS011;70686;52.494;13.420;2023-10-09T04:20:41;6.00;;;3.60;;
81211;SDS011;70686;52.494;13.420;2023-10-09T04:23:10;4.93;;;2.90;;
81211;SDS011;70686;52.494;13.420;2023-10-09T04:25:41;5.70;;;3.38;;
81211;SDS011;70686;52.494;13.420;2023-10-09T04:28:15;5.85;;;3.53;;
81211;SDS011;70686;52.494;13.420;2023-10-09T04:30:41;5.90;;;3.30;;
81211;SDS011;70686;52.494;13.420;2023-10-09T04:33:14;6.68;;;3.30;;
81211;SDS011;70686;52.494;13.420;2023-10-09T04:36:11;6.05;;;3.47;;
81211;SDS011;70686;52.494;13.420;2023-10-09T04:38:45;7.10;;;3.80;;
81211;SDS011;70686;52.494;13.420;2023-10-09T04:41:40;7.70;;;3.78;;
81211;SDS011;70686;52.494;13.420;2023-10-09T04:44:06;4.88;;;3.25;;
81211;SDS011;70686;52.494;13.420;2023-10-09T04:46:41;7.55;;;3.42;;
81211;SDS011;70686;52.494;13.420;2023-10-09T04:49:10;7.25;;;3.70;;
81211;SDS011;70686;52.494;13.420;2023-10-09T04:51:53;6.15;;;4.03;;
81211;SDS011;70686;52.494;13.420;2023-10-09T04:54:43;5.82;;;3.50;;
81211;SDS011;70686;52.494;13.420;2023-10-09T04:57:27;6.10;;;3.72;;
81211;SDS011;70686;52.494;13.420;2023-10-09T04:59:52;8.00;;;4.03;;
81211;SDS011;70686;52.494;13.420;2023-10-09T05:02:23;5.85;;;3.42;;
81211;SDS011;70686;52.494;13.420;2023-10-09T05:05:09;6.95;;;3.85;;
81211;SDS011;70686;52.494;13.420;2023-10-09T05:08:01;6.00;;;3.55;;
81211;SDS011;70686;52.494;13.420;2023-10-09T05:10:43;5.50;;;4.05;;
81211;SDS011;70686;52.494;13.420;2023-10-09T05:13:24;6.40;;;3.60;;
81211;SDS011;70686;52.494;13.420;2023-10-09T05:18:44;7.22;;;3.75;;
81211;SDS011;70686;52.494;13.420;2023-10-09T05:21:39;5.75;;;3.53;;
81211;SDS011;70686;52.494;13.420;2023-10-09T05:24:08;6.05;;;3.75;;
81211;SDS011;70686;52.494;13.420;2023-10-09T05:26:40;6.50;;;4.15;;
81211;SDS011;70686;52.494;13.420;2023-10-09T05:31:54;8.07;;;3.75;;
81211;SDS011;70686;52.494;13.420;2023-10-09T05:34:29;8.05;;;4.00;;
81211;SDS011;70686;52.494;13.420;2023-10-09T05:37:13;6.30;;;3.70;;
81211;SDS011;70686;52.494;13.420;2023-10-09T05:39:45;7.30;;;3.67;;
81211;SDS011;70686;52.494;13.420;2023-10-09T05:42:27;7.47;;;4.03;;
81211;SDS011;70686;52.494;13.420;2023-10-09T05:45:11;6.45;;;3.80;;
81211;SDS011;70686;52.494;13.420;2023-10-09T05:47:57;7.20;;;4.07;;
81211;SDS011;70686;52.494;13.420;2023-10-09T05:50:29;6.50;;;4.10;;
81211;SDS011;70686;52.494;13.420;2023-10-09T05:53:14;7.13;;;3.70;;
81211;SDS011;70686;52.494;13.420;2023-10-09T05:56:03;7.35;;;3.80;;
81211;SDS011;70686;52.494;13.420;2023-10-09T05:58:47;6.00;;;3.45;;
81211;SDS011;70686;52.494;13.420;2023-10-09T06:01:31;10.05;;;4.10;;
81211;SDS011;70686;52.494;13.420;2023-10-09T06:04:15;5.90;;;3.42;;
81211;SDS011;70686;52.494;13.420;2023-10-09T06:06:43;6.00;;;3.50;;
81211;SDS011;70686;52.494;13.420;2023-10-09T06:09:13;5.82;;;3.45;;
81211;SDS011;70686;52.494;13.420;2023-10-09T06:11:40;6.32;;;3.05;;
81211;SDS011;70686;52.494;13.420;2023-10-09T06:14:08;6.68;;;3.47;;
81211;SDS011;70686;52.494;13.420;2023-10-09T06:16:36;6.75;;;3.80;;
81211;SDS011;70686;52.494;13.420;2023-10-09T06:19:22;8.68;;;3.60;;
81211;SDS011;70686;52.494;13.420;2023-10-09T06:21:48;7.25;;;3.58;;
81211;SDS011;70686;52.494;13.420;2023-10-09T06:24:20;10.73;;;3.72;;
81211;SDS011;70686;52.494;13.420;2023-10-09T06:27:06;5.90;;;3.42;;
81211;SDS011;70686;52.494;13.420;2023-10-09T06:29:32;6.22;;;3.58;;
81211;SDS011;70686;52.494;13.420;2023-10-09T06:34:56;7.88;;;4.30;;
81211;SDS011;70686;52.494;13.420;2023-10-09T06:37:45;6.30;;;3.45;;
81211;SDS011;70686;52.494;13.420;2023-10-09T06:43:13;9.25;;;4.10;;
81211;SDS011;70686;52.494;13.420;2023-10-09T06:45:42;9.65;;;3.45;;
81211;SDS011;70686;52.494;13.420;2023-10-09T06:48:13;10.00;;;3.97;;
81211;SDS011;70686;52.494;13.420;2023-10-09T06:51:01;12.13;;;3.90;;
81211;SDS011;70686;52.494;13.420;2023-10-09T06:53:33;7.22;;;4.28;;
81211;SDS011;70686;52.494;13.420;2023-10-09T06:56:22;6.53;;;4.00;;
81211;SDS011;70686;52.494;13.420;2023-10-09T07:01:29;7.00;;;3.40;;
81211;SDS011;70686;52.494;13.420;2023-10-09T07:03:56;5.63;;;2.88;;
81211;SDS011;70686;52.494;13.420;2023-10-09T07:06:35;6.50;;;3.10;;
81211;SDS011;70686;52.494;13.420;2023-10-09T07:09:02;8.27;;;3.85;;
81211;SDS011;70686;52.494;13.420;2023-10-09T07:14:09;5.63;;;3.30;;
81211;SDS011;70686;52.494;13.420;2023-10-09T07:19:41;7.40;;;3.60;;
81211;SDS011;70686;52.494;13.420;2023-10-09T07:22:09;7.68;;;3.53;;
81211;SDS011;70686;52.494;13.420;2023-10-09T07:24:42;6.57;;;3.47;;
81211;SDS011;70686;52.494;13.420;2023-10-09T07:27:11;8.45;;;3.90;;
81211;SDS011;70686;52.494;13.420;2023-10-09T07:29:39;5.40;;;3.30;;
81211;SDS011;70686;52.494;13.420;2023-10-09T07:32:15;5.93;;;3.35;;
81211;SDS011;70686;52.494;13.420;2023-10-09T07:34:48;10.45;;;4.18;;
81211;SDS011;70686;52.494;13.420;2023-10-09T07:37:29;7.68;;;4.30;;
81211;SDS011;70686;52.494;13.420;2023-10-09T07:39:57;8.32;;;4.50;;
81211;SDS011;70686;52.494;13.420;2023-10-09T07:42:27;9.55;;;4.60;;
81211;SDS011;70686;52.494;13.420;2023-10-09T07:45:05;8.48;;;4.60;;
81211;SDS011;70686;52.494;13.420;2023-10-09T07:47:58;6.45;;;4.03;;
81211;SDS011;70686;52.494;13.420;2023-10-09T07:50:24;8.50;;;4.50;;
81211;SDS011;70686;52.494;13.420;2023-10-09T07:53:12;8.50;;;4.82;;
81211;SDS011;70686;52.494;13.420;2023-10-09T07:55:51;7.63;;;3.95;;
81211;SDS011;70686;52.494;13.420;2023-10-09T07:58:35;7.80;;;3.85;;
81211;SDS011;70686;52.494;13.420;2023-10-09T08:01:11;8.63;;;3.95;;
81211;SDS011;70686;52.494;13.420;2023-10-09T08:03:48;8.38;;;4.07;;
81211;SDS011;70686;52.494;13.420;2023-10-09T08:06:27;9.00;;;4.28;;
81211;SDS011;70686;52.494;13.420;2023-10-09T08:09:07;9.55;;;4.85;;
81211;SDS011;70686;52.494;13.420;2023-10-09T08:14:10;6.75;;;4.15;;
81211;SDS011;70686;52.494;13.420;2023-10-09T08:16:55;7.95;;;4.43;;
81211;SDS011;70686;52.494;13.420;2023-10-09T08:19:40;7.60;;;4.35;;
81211;SDS011;70686;52.494;13.420;2023-10-09T08:24:54;6.05;;;4.05;;
81211;SDS011;70686;52.494;13.420;2023-10-09T08:27:24;6.47;;;4.00;;
81211;SDS011;70686;52.494;13.420;2023-10-09T08:29:59;7.90;;;4.18;;
81211;SDS011;70686;52.494;13.420;2023-10-09T08:32:50;7.63;;;4.07;;
81211;SDS011;70686;52.494;13.420;2023-10-09T08:35:31;7.35;;;4.00;;
81211;SDS011;70686;52.494;13.420;2023-10-09T08:37:59;7.13;;;3.83;;
81211;SDS011;70686;52.494;13.420;2023-10-09T08:40:38;7.75;;;4.88;;
81211;SDS011;70686;52.494;13.420;2023-10-09T08:43:18;6.70;;;3.97;;
81211;SDS011;70686;52.494;13.420;2023-10-09T08:45:45;7.53;;;4.30;;
81211;SDS011;70686;52.494;13.420;2023-10-09T08:48:12;6.05;;;4.10;;
81211;SDS011;70686;52.494;13.420;2023-10-09T08:50:43;7.00;;;4.15;;
81211;SDS011;70686;52.494;13.420;2023-10-09T08:53:12;6.80;;;4.10;;
81211;SDS011;70686;52.494;13.420;2023-10-09T08:55:39;6.82;;;4.05;;
81211;SDS011;70686;52.494;13.420;2023-10-09T08:58:06;9.02;;;4.30;;
81211;SDS011;70686;52.494;13.420;2023-10-09T09:00:42;9.95;;;4.53;;
81211;SDS011;70686;52.494;13.420;2023-10-09T09:03:11;6.82;;;4.13;;
81211;SDS011;70686;52.494;13.420;2023-10-09T09:05:41;8.93;;;4.60;;
81211;SDS011;70686;52.494;13.420;2023-10-09T09:08:24;8.20;;;4.25;;
81211;SDS011;70686;52.494;13.420;2023-10-09T09:11:00;8.50;;;4.40;;
81211;SDS011;70686;52.494;13.420;2023-10-09T09:14:00;7.45;;;4.68;;
81211;SDS011;70686;52.494;13.420;2023-10-09T09:16:30;18.00;;;4.82;;
81211;SDS011;70686;52.494;13.420;2023-10-09T09:18:58;10.60;;;4.47;;
81211;SDS011;70686;52.494;13.420;2023-10-09T09:21:48;15.68;;;5.32;;
81211;SDS011;70686;52.494;13.420;2023-10-09T09:24:36;12.02;;;4.32;;
81211;SDS011;70686;52.494;13.420;2023-10-09T09:27:03;8.95;;;4.65;;
81211;SDS011;70686;52.494;13.420;2023-10-09T09:29:43;11.13;;;5.53;;
81211;SDS011;70686;52.494;13.420;2023-10-09T09:32:19;7.78;;;4.57;;
81211;SDS011;70686;52.494;13.420;2023-10-09T09:35:00;8.43;;;5.00;;
81211;SDS011;70686;52.494;13.420;2023-10-09T09:37:33;8.40;;;4.63;;
81211;SDS011;70686;52.494;13.420;2023-10-09T09:40:08;8.57;;;4.50;;
81211;SDS011;70686;52.494;13.420;2023-10-09T09:42:56;6.82;;;4.57;;
81211;SDS011;70686;52.494;13.420;2023-10-09T09:45:37;9.07;;;5.28;;
81211;SDS011;70686;52.494;13.420;2023-10-09T09:48:06;8.88;;;5.07;;
81211;SDS011;70686;52.494;13.420;2023-10-09T09:50:40;9.02;;;5.20;;
81211;SDS011;70686;52.494;13.420;2023-10-09T09:53:14;7.53;;;4.88;;
81211;SDS011;70686;52.494;13.420;2023-10-09T09:58:23;8.02;;;4.75;;
81211;SDS011;70686;52.494;13.420;2023-10-09T10:00:53;8.07;;;4.90;;
81211;SDS011;70686;52.494;13.420;2023-10-09T10:03:38;8.10;;;5.05;;
81211;SDS011;70686;52.494;13.420;2023-10-09T10:06:20;8.88;;;5.30;;
81211;SDS011;70686;52.494;13.420;2023-10-09T10:08:48;10.70;;;5.40;;
81211;SDS011;70686;52.494;13.420;2023-10-09T10:14:17;14.30;;;6.03;;
81211;SDS011;70686;52.494;13.420;2023-10-09T10:17:08;8.80;;;5.00;;
81211;SDS011;70686;52.494;13.420;2023-10-09T10:22:45;8.73;;;5.35;;
81211;SDS011;70686;52.494;13.420;2023-10-09T10:28:26;8.52;;;5.47;;
81211;SDS011;70686;52.494;13.420;2023-10-09T10:31:08;9.35;;;5.55;;
81211;SDS011;70686;52.494;13.420;2023-10-09T10:36:26;7.10;;;5.38;;
81211;SDS011;70686;52.494;13.420;2023-10-09T10:41:56;11.05;;;5.38;;
81211;SDS011;70686;52.494;13.420;2023-10-09T10:44:34;9.45;;;5.40;;
81211;SDS011;70686;52.494;13.420;2023-10-09T10:47:05;8.77;;;5.15;;
81211;SDS011;70686;52.494;13.420;2023-10-09T10:52:23;8.07;;;5.53;;
81211;SDS011;70686;52.494;13.420;2023-10-09T10:57:55;8.27;;;5.50;;
81211;SDS011;70686;52.494;13.420;2023-10-09T11:00:41;11.65;;;6.00;;
81211;SDS011;70686;52.494;13.420;2023-10-09T11:03:22;9.18;;;5.68;;
81211;SDS011;70686;52.494;13.420;2023-10-09T11:06:23;9.73;;;6.07;;
81211;SDS011;70686;52.494;13.420;2023-10-09T11:09:00;11.15;;;5.55;;
81211;SDS011;70686;52.494;13.420;2023-10-09T11:11:34;8.43;;;5.43;;
81211;SDS011;70686;52.494;13.420;2023-10-09T11:14:12;8.98;;;6.03;;
81211;SDS011;70686;52.494;13.420;2023-10-09T11:16:59;8.57;;;5.80;;
81211;SDS011;70686;52.494;13.420;2023-10-09T11:19:28;11.32;;;6.22;;
81211;SDS011;70686;52.494;13.420;2023-10-09T11:21:56;15.05;;;6.22;;
81211;SDS011;70686;52.494;13.420;2023-10-09T11:24:44;12.23;;;6.25;;
81211;SDS011;70686;52.494;13.420;2023-10-09T11:27:25;11.73;;;5.82;;
81211;SDS011;70686;52.494;13.420;2023-10-09T11:29:57;14.63;;;6.60;;
81211;SDS011;70686;52.494;13.420;2023-10-09T11:32:31;8.88;;;5.85;;
81211;SDS011;70686;52.494;13.420;2023-10-09T11:35:10;15.23;;;7.38;;
81211;SDS011;70686;52.494;13.420;2023-10-09T11:37:59;16.50;;;7.28;;
81211;SDS011;70686;52.494;13.420;2023-10-09T11:40:29;13.05;;;7.93;;
81211;SDS011;70686;52.494;13.420;2023-10-09T11:43:15;12.43;;;7.65;;
81211;SDS011;70686;52.494;13.420;2023-10-09T11:45:41;8.88;;;6.28;;
81211;SDS011;70686;52.494;13.420;2023-10-09T11:48:19;24.10;;;9.27;;
81211;SDS011;70686;52.494;13.420;2023-10-09T11:51:15;12.27;;;7.25;;
81211;SDS011;70686;52.494;13.420;2023-10-09T11:53:44;10.10;;;7.00;;
81211;SDS011;70686;52.494;13.420;2023-10-09T11:56:23;10.60;;;6.63;;
81211;SDS011;70686;52.494;13.420;2023-10-09T11:58:52;9.20;;;6.65;;
81211;SDS011;70686;52.494;13.420;2023-10-09T12:01:18;11.30;;;6.82;;
81211;SDS011;70686;52.494;13.420;2023-10-09T12:03:50;10.27;;;6.50;;
81211;SDS011;70686;52.494;13.420;2023-10-09T12:06:17;11.38;;;7.45;;
81211;SDS011;70686;52.494;13.420;2023-10-09T12:08:47;12.48;;;7.93;;
81211;SDS011;70686;52.494;13.420;2023-10-09T12:11:14;10.25;;;7.03;;
81211;SDS011;70686;52.494;13.420;2023-10-09T12:13:48;10.98;;;7.00;;
81211;SDS011;70686;52.494;13.420;2023-10-09T12:16:14;9.52;;;6.25;;
81211;SDS011;70686;52.494;13.420;2023-10-09T12:18:40;8.27;;;6.22;;
81211;SDS011;70686;52.494;13.420;2023-10-09T12:21:08;9.52;;;6.65;;
81211;SDS011;70686;52.494;13.420;2023-10-09T12:26:06;10.30;;;6.85;;
81211;SDS011;70686;52.494;13.420;2023-10-09T12:28:45;10.27;;;6.38;;
81211;SDS011;70686;52.494;13.420;2023-10-09T12:31:15;9.20;;;6.55;;
81211;SDS011;70686;52.494;13.420;2023-10-09T12:33:48;12.85;;;6.85;;
81211;SDS011;70686;52.494;13.420;2023-10-09T12:36:21;10.30;;;6.90;;
81211;SDS011;70686;52.494;13.420;2023-10-09T12:38:51;12.50;;;7.00;;
81211;SDS011;70686;52.494;13.420;2023-10-09T12:41:24;12.90;;;7.88;;
81211;SDS011;70686;52.494;13.420;2023-10-09T12:43:56;12.05;;;7.97;;
81211;SDS011;70686;52.494;13.420;2023-10-09T12:46:23;9.95;;;7.28;;
81211;SDS011;70686;52.494;13.420;2023-10-09T12:48:51;10.88;;;7.47;;
81211;SDS011;70686;52.494;13.420;2023-10-09T12:51:31;13.82;;;8.48;;
81211;SDS011;70686;52.494;13.420;2023-10-09T12:54:06;12.73;;;8.60;;
81211;SDS011;70686;52.494;13.420;2023-10-09T12:56:47;13.05;;;8.95;;
81211;SDS011;70686;52.494;13.420;2023-10-09T12:59:47;12.02;;;8.18;;
81211;SDS011;70686;52.494;13.420;2023-10-09T13:02:18;22.27;;;11.90;;
81211;SDS011;70686;52.494;13.420;2023-10-09T13:05:07;12.88;;;8.48;;
81211;SDS011;70686;52.494;13.420;2023-10-09T13:07:38;12.25;;;8.35;;
81211;SDS011;70686;52.494;13.420;2023-10-09T13:10:04;13.95;;;8.85;;
81211;SDS011;70686;52.494;13.420;2023-10-09T13:12:35;15.35;;;8.85;;
81211;SDS011;70686;52.494;13.420;2023-10-09T13:15:15;14.77;;;8.37;;
81211;SDS011;70686;52.494;13.420;2023-10-09T13:17:46;14.27;;;8.70;;
81211;SDS011;70686;52.494;13.420;2023-10-09T13:20:12;18.38;;;9.80;;
81211;SDS011;70686;52.494;13.420;2023-10-09T13:22:49;13.63;;;9.07;;
81211;SDS011;70686;52.494;13.420;2023-10-09T13:25:18;14.02;;;7.88;;
81211;SDS011;70686;52.494;13.420;2023-10-09T13:27:49;14.30;;;9.10;;
81211;SDS011;70686;52.494;13.420;2023-10-09T13:30:19;14.60;;;9.25;;
81211;SDS011;70686;52.494;13.420;2023-10-09T13:32:47;14.55;;;8.57;;
81211;SDS011;70686;52.494;13.420;2023-10-09T13:35:16;16.27;;;9.98;;
81211;SDS011;70686;52.494;13.420;2023-10-09T13:37:44;13.20;;;8.43;;
81211;SDS011;70686;52.494;13.420;2023-10-09T13:40:19;16.13;;;9.43;;
81211;SDS011;70686;52.494;13.420;2023-10-09T13:42:55;13.45;;;9.18;;
81211;SDS011;70686;52.494;13.420;2023-10-09T13:45:26;11.85;;;8.10;;
81211;SDS011;70686;52.494;13.420;2023-10-09T13:47:53;12.68;;;8.52;;
81211;SDS011;70686;52.494;13.420;2023-10-09T13:50:25;13.85;;;8.45;;
81211;SDS011;70686;52.494;13.420;2023-10-09T13:52:58;13.15;;;7.85;;
81211;SDS011;70686;52.494;13.420;2023-10-09T13:55:24;11.55;;;8.18;;
81211;SDS011;70686;52.494;13.420;2023-10-09T13:57:57;13.82;;;9.18;;
81211;SDS011;70686;52.494;13.420;2023-10-09T14:00:24;13.65;;;8.63;;
81211;SDS011;70686;52.494;13.420;2023-10-09T14:02:59;11.98;;;8.00;;
81211;SDS011;70686;52.494;13.420;2023-10-09T14:05:28;14.43;;;8.73;;
81211;SDS011;70686;52.494;13.420;2023-10-09T14:07:54;14.77;;;8.80;;
81211;SDS011;70686;52.494;13.420;2023-10-09T14:10:22;12.45;;;8.45;;
81211;SDS011;70686;52.494;13.420;2023-10-09T14:12:51;13.07;;;7.93;;
81211;SDS011;70686;52.494;13.420;2023-10-09T14:15:19;12.07;;;7.90;;
81211;SDS011;70686;52.494;13.420;2023-10-09T14:17:45;13.15;;;8.43;;
81211;SDS011;70686;52.494;13.420;2023-10-09T14:20:20;13.57;;;8.27;;
81211;SDS011;70686;52.494;13.420;2023-10-09T14:23:00;12.65;;;8.20;;
81211;SDS011;70686;52.494;13.420;2023-10-09T14:25:37;13.07;;;7.85;;
81211;SDS011;70686;52.494;13.420;2023-10-09T14:28:07;12.95;;;8.90;;
81211;SDS011;70686;52.494;13.420;2023-10-09T14:30:34;13.23;;;8.07;;
81211;SDS011;70686;52.494;13.420;2023-10-09T14:33:15;9.73;;;7.15;;
81211;SDS011;70686;52.494;13.420;2023-10-09T14:35:48;14.35;;;8.35;;
81211;SDS011;70686;52.494;13.420;2023-10-09T14:38:14;16.85;;;9.15;;
81211;SDS011;70686;52.494;13.420;2023-10-09T14:40:41;15.60;;;9.48;;
81211;SDS011;70686;52.494;13.420;2023-10-09T14:43:09;14.82;;;8.85;;
81211;SDS011;70686;52.494;13.420;2023-10-09T14:45:47;12.60;;;8.00;;
81211;SDS011;70686;52.494;13.420;2023-10-09T14:48:16;13.00;;;7.68;;
81211;SDS011;70686;52.494;13.420;2023-10-09T14:50:54;11.38;;;8.32;;
81211;SDS011;70686;52.494;13.420;2023-10-09T14:53:29;11.40;;;8.32;;
81211;SDS011;70686;52.494;13.420;2023-10-09T14:55:56;12.80;;;8.32;;
81211;SDS011;70686;52.494;13.420;2023-10-09T14:58:22;16.67;;;8.90;;
81211;SDS011;70686;52.494;13.420;2023-10-09T15:00:54;12.77;;;9.00;;
81211;SDS011;70686;52.494;13.420;2023-10-09T15:03:24;14.63;;;8.55;;
81211;SDS011;70686;52.494;13.420;2023-10-09T15:08:19;14.10;;;8.40;;
81211;SDS011;70686;52.494;13.420;2023-10-09T15:10:49;12.63;;;8.85;;
81211;SDS011;70686;52.494;13.420;2023-10-09T15:13:21;14.88;;;9.25;;
81211;SDS011;70686;52.494;13.420;2023-10-09T15:15:54;14.77;;;8.82;;
81211;SDS011;70686;52.494;13.420;2023-10-09T15:18:20;15.93;;;9.38;;
81211;SDS011;70686;52.494;13.420;2023-10-09T15:20:53;15.68;;;9.27;;
81211;SDS011;70686;52.494;13.420;2023-10-09T15:23:20;14.77;;;9.90;;
81211;SDS011;70686;52.494;13.420;2023-10-09T15:25:45;14.57;;;9.98;;
81211;SDS011;70686;52.494;13.420;2023-10-09T15:28:15;17.15;;;10.52;;
81211;SDS011;70686;52.494;13.420;2023-10-09T15:30:44;16.83;;;10.50;;
81211;SDS011;70686;52.494;13.420;2023-10-09T15:33:15;14.35;;;9.55;;
81211;SDS011;70686;52.494;13.420;2023-10-09T15:35:45;13.85;;;8.90;;
81211;SDS011;70686;52.494;13.420;2023-10-09T15:38:17;15.63;;;9.60;;
81211;SDS011;70686;52.494;13.420;2023-10-09T15:40:44;14.38;;;9.10;;
81211;SDS011;70686;52.494;13.420;2023-10-09T15:43:12;17.50;;;11.07;;
81211;SDS011;70686;52.494;13.420;2023-10-09T15:45:45;14.02;;;9.48;;
81211;SDS011;70686;52.494;13.420;2023-10-09T15:48:13;14.48;;;8.98;;
81211;SDS011;70686;52.494;13.420;2023-10-09T15:50:44;15.95;;;10.00;;
81211;SDS011;70686;52.494;13.420;2023-10-09T15:53:18;14.45;;;9.82;;
81211;SDS011;70686;52.494;13.420;2023-10-09T15:55:44;14.52;;;9.18;;
81211;SDS011;70686;52.494;13.420;2023-10-09T15:58:11;17.33;;;10.35;;
81211;SDS011;70686;52.494;13.420;2023-10-09T16:00:42;15.95;;;9.35;;
81211;SDS011;70686;52.494;13.420;2023-10-09T16:03:10;14.82;;;8.73;;
81211;SDS011;70686;52.494;13.420;2023-10-09T16:05:39;13.43;;;9.00;;